sensor_id;sensor_type;location;lat;lon;timestamp;pressure;altitude;pressure_sealevel;temperature;humidity
59103;BME280;43999;51.660;5.616;2022-12-01T00:01:29;102485.03;;;5.39;100.00
59103;BME280;43999;51.660;5.616;2022-12-01T00:03:57;102486.78;;;5.40;100.00
59103;BME280;43999;51.660;5.616;2022-12-01T00:06:24;102482.41;;;5.44;100.00
59103;BME280;43999;51.660;5.616;2022-12-01T00:08:52;102482.41;;;5.45;100.00
59103;BME280;43999;51.660;5.616;2022-12-01T00:11:46;102488.47;;;5.46;100.00
59103;BME280;43999;51.660;5.616;2022-12-01T00:14:14;102485.88;;;5.44;100.00
59103;BME280;43999;51.660;5.616;2022-12-01T00:16:42;102481.53;;;5.45;100.00
59103;BME280;43999;51.660;5.616;2022-12-01T00:19:10;102485.00;;;5.44;100.00
59103;BME280;43999;51.660;5.616;2022-12-01T00:21:37;102483.31;;;5.43;100.00
59103;BME280;43999;51.660;5.616;2022-12-01T00:24:06;102487.59;;;5.44;100.00
59103;BME280;43999;51.660;5.616;2022-12-01T00:26:36;102478.09;;;5.41;100.00
59103;BME280;43999;51.660;5.616;2022-12-01T00:29:04;102482.44;;;5.41;100.00
59103;BME280;43999;51.660;5.616;2022-12-01T00:31:31;102482.44;;;5.41;100.00
59103;BME280;43999;51.660;5.616;2022-12-01T00:33:59;102476.38;;;5.42;100.00
59103;BME280;43999;51.660;5.616;2022-12-01T00:36:30;102475.53;;;5.39;100.00
59103;BME280;43999;51.660;5.616;2022-12-01T00:38:57;102477.25;;;5.37;100.00
59103;BME280;43999;51.660;5.616;2022-12-01T00:41:25;102476.41;;;5.35;100.00
59103;BME280;43999;51.660;5.616;2022-12-01T00:43:52;102477.28;;;5.33;100.00
59103;BME280;43999;51.660;5.616;2022-12-01T00:46:20;102475.56;;;5.32;100.00
59103;BME280;43999;51.660;5.616;2022-12-01T00:48:48;102480.75;;;5.32;100.00
59103;BME280;43999;51.660;5.616;2022-12-01T00:51:15;102475.56;;;5.32;100.00
59103;BME280;43999;51.660;5.616;2022-12-01T00:53:42;102476.44;;;5.31;100.00
59103;BME280;43999;51.660;5.616;2022-12-01T00:56:09;102479.03;;;5.31;100.00
59103;BME280;43999;51.660;5.616;2022-12-01T00:58:37;102480.78;;;5.29;100.00
59103;BME280;43999;51.660;5.616;2022-12-01T01:01:04;102485.97;;;5.29;100.00
59103;BME280;43999;51.660;5.616;2022-12-01T01:03:33;102487.66;;;5.31;100.00
59103;BME280;43999;51.660;5.616;2022-12-01T01:06:10;102478.16;;;5.33;100.00
59103;BME280;43999;51.660;5.616;2022-12-01T01:08:39;102483.34;;;5.33;100.00
59103;BME280;43999;51.660;5.616;2022-12-01T01:11:07;102481.63;;;5.32;100.00
59103;BME280;43999;51.660;5.616;2022-12-01T01:13:36;102493.75;;;5.33;100.00
59103;BME280;43999;51.660;5.616;2022-12-01T01:16:08;102489.41;;;5.32;100.00
59103;BME280;43999;51.660;5.616;2022-12-01T01:18:40;102492.00;;;5.34;100.00
59103;BME280;43999;51.660;5.616;2022-12-01T01:21:14;102493.75;;;5.35;100.00
59103;BME280;43999;51.660;5.616;2022-12-01T01:23:43;102495.47;;;5.34;100.00
59103;BME280;43999;51.660;5.616;2022-12-01T01:26:21;102495.47;;;5.34;100.00
59103;BME280;43999;51.660;5.616;2022-12-01T01:28:57;102499.78;;;5.35;100.00
59103;BME280;43999;51.660;5.616;2022-12-01T01:31:29;102502.41;;;5.35;100.00
59103;BME280;43999;51.660;5.616;2022-12-01T01:33:58;102502.41;;;5.34;100.00
59103;BME280;43999;51.660;5.616;2022-12-01T01:36:26;102502.41;;;5.35;100.00
59103;BME280;43999;51.660;5.616;2022-12-01T01:38:54;102508.47;;;5.33;100.00
59103;BME280;43999;51.660;5.616;2022-12-01T01:41:22;102505.00;;;5.35;100.00
59103;BME280;43999;51.660;5.616;2022-12-01T01:44:01;102512.78;;;5.35;100.00
59103;BME280;43999;51.660;5.616;2022-12-01T01:46:32;102513.66;;;5.34;100.00
59103;BME280;43999;51.660;5.616;2022-12-01T01:49:02;102506.78;;;5.29;100.00
59103;BME280;43999;51.660;5.616;2022-12-01T01:51:45;102511.09;;;5.28;100.00
59103;BME280;43999;51.660;5.616;2022-12-01T01:54:24;102507.63;;;5.26;100.00
59103;BME280;43999;51.660;5.616;2022-12-01T01:56:59;102513.72;;;5.25;100.00
59103;BME280;43999;51.660;5.616;2022-12-01T01:59:36;102509.38;;;5.24;100.00
59103;BME280;43999;51.660;5.616;2022-12-01T02:02:10;102509.38;;;5.24;100.00
59103;BME280;43999;51.660;5.616;2022-12-01T02:04:46;102511.97;;;5.26;100.00
59103;BME280;43999;51.660;5.616;2022-12-01T02:07:18;102509.38;;;5.29;100.00
59103;BME280;43999;51.660;5.616;2022-12-01T02:09:45;102510.25;;;5.26;100.00
59103;BME280;43999;51.660;5.616;2022-12-01T02:15:54;102506.81;;;5.23;100.00
59103;BME280;43999;51.660;5.616;2022-12-01T02:18:45;102504.22;;;5.21;100.00
59103;BME280;43999;51.660;5.616;2022-12-01T02:25:00;102505.06;;;5.21;100.00
59103;BME280;43999;51.660;5.616;2022-12-01T02:31:35;102511.16;;;5.19;100.00
59103;BME280;43999;51.660;5.616;2022-12-01T02:34:24;102510.28;;;5.17;100.00
59103;BME280;43999;51.660;5.616;2022-12-01T02:37:34;102514.63;;;5.16;100.00
59103;BME280;43999;51.660;5.616;2022-12-01T02:40:23;102507.66;;;5.20;100.00
59103;BME280;43999;51.660;5.616;2022-12-01T02:46:23;102511.16;;;5.16;100.00
59103;BME280;43999;51.660;5.616;2022-12-01T02:49:02;102512.03;;;5.18;100.00
59103;BME280;43999;51.660;5.616;2022-12-01T02:51:37;102515.47;;;5.20;100.00
59103;BME280;43999;51.660;5.616;2022-12-01T02:54:12;102514.59;;;5.19;100.00
59103;BME280;43999;51.660;5.616;2022-12-01T02:56:44;102517.19;;;5.21;100.00
59103;BME280;43999;51.660;5.616;2022-12-01T02:59:13;102509.41;;;5.21;100.00
59103;BME280;43999;51.660;5.616;2022-12-01T03:05:15;102519.81;;;5.18;100.00
59103;BME280;43999;51.660;5.616;2022-12-01T03:10:56;102518.06;;;5.21;100.00
59103;BME280;43999;51.660;5.616;2022-12-01T03:13:44;102512.00;;;5.23;100.00
59103;BME280;43999;51.660;5.616;2022-12-01T03:19:01;102518.06;;;5.20;100.00
59103;BME280;43999;51.660;5.616;2022-12-01T03:21:41;102517.19;;;5.23;100.00
59103;BME280;43999;51.660;5.616;2022-12-01T03:24:16;102518.06;;;5.23;100.00
59103;BME280;43999;51.660;5.616;2022-12-01T03:26:49;102506.78;;;5.24;100.00
59103;BME280;43999;51.660;5.616;2022-12-01T03:29:38;102510.22;;;5.28;100.00
59103;BME280;43999;51.660;5.616;2022-12-01T03:32:17;102507.63;;;5.28;100.00
59103;BME280;43999;51.660;5.616;2022-12-01T03:34:58;102509.38;;;5.27;100.00
59103;BME280;43999;51.660;5.616;2022-12-01T03:37:42;102522.38;;;5.29;100.00
59103;BME280;43999;51.660;5.616;2022-12-01T03:40:17;102511.09;;;5.28;100.00
59103;BME280;43999;51.660;5.616;2022-12-01T03:43:07;102506.75;;;5.30;100.00
59103;BME280;43999;51.660;5.616;2022-12-01T03:46:18;102511.97;;;5.30;100.00
59103;BME280;43999;51.660;5.616;2022-12-01T03:48:58;102510.22;;;5.29;100.00
59103;BME280;43999;51.660;5.616;2022-12-01T03:55:05;102510.22;;;5.31;100.00
59103;BME280;43999;51.660;5.616;2022-12-01T03:57:55;102507.63;;;5.29;100.00
59103;BME280;43999;51.660;5.616;2022-12-01T04:00:29;102514.56;;;5.29;100.00
59103;BME280;43999;51.660;5.616;2022-12-01T04:03:00;102516.28;;;5.30;100.00
59103;BME280;43999;51.660;5.616;2022-12-01T04:05:32;102527.56;;;5.27;100.00
59103;BME280;43999;51.660;5.616;2022-12-01T04:08:01;102530.19;;;5.26;100.00
59103;BME280;43999;51.660;5.616;2022-12-01T04:10:28;102518.94;;;5.25;100.00
59103;BME280;43999;51.660;5.616;2022-12-01T04:12:55;102524.13;;;5.25;100.00
59103;BME280;43999;51.660;5.616;2022-12-01T04:15:26;102516.34;;;5.22;100.00
59103;BME280;43999;51.660;5.616;2022-12-01T04:17:54;102527.59;;;5.21;100.00
59103;BME280;43999;51.660;5.616;2022-12-01T04:20:21;102522.41;;;5.21;100.00
59103;BME280;43999;51.660;5.616;2022-12-01T04:22:49;102527.59;;;5.23;100.00
59103;BME280;43999;51.660;5.616;2022-12-01T04:25:16;102527.59;;;5.23;100.00
59103;BME280;43999;51.660;5.616;2022-12-01T04:27:43;102537.13;;;5.24;100.00
59103;BME280;43999;51.660;5.616;2022-12-01T04:30:11;102529.31;;;5.27;100.00
59103;BME280;43999;51.660;5.616;2022-12-01T04:32:40;102522.38;;;5.26;100.00
59103;BME280;43999;51.660;5.616;2022-12-01T04:35:11;102517.19;;;5.26;100.00
59103;BME280;43999;51.660;5.616;2022-12-01T04:37:40;102521.53;;;5.25;100.00
59103;BME280;43999;51.660;5.616;2022-12-01T04:40:08;102505.94;;;5.22;100.00
59103;BME280;43999;51.660;5.616;2022-12-01T04:42:36;102518.94;;;5.22;100.00
59103;BME280;43999;51.660;5.616;2022-12-01T04:45:03;102507.66;;;5.21;100.00
59103;BME280;43999;51.660;5.616;2022-12-01T04:47:31;102518.94;;;5.22;100.00
59103;BME280;43999;51.660;5.616;2022-12-01T04:49:58;102515.47;;;5.21;100.00
59103;BME280;43999;51.660;5.616;2022-12-01T04:52:26;102519.78;;;5.23;100.00
59103;BME280;43999;51.660;5.616;2022-12-01T04:55:02;102512.00;;;5.23;100.00
59103;BME280;43999;51.660;5.616;2022-12-01T04:57:29;102521.53;;;5.22;100.00
59103;BME280;43999;51.660;5.616;2022-12-01T04:59:56;102523.25;;;5.21;100.00
59103;BME280;43999;51.660;5.616;2022-12-01T05:02:24;102518.94;;;5.22;100.00
59103;BME280;43999;51.660;5.616;2022-12-01T05:04:51;102513.75;;;5.20;100.00
59103;BME280;43999;51.660;5.616;2022-12-01T05:07:18;102525.84;;;5.20;100.00
59103;BME280;43999;51.660;5.616;2022-12-01T05:09:45;102520.66;;;5.18;100.00
59103;BME280;43999;51.660;5.616;2022-12-01T05:12:13;102520.66;;;5.18;100.00
59103;BME280;43999;51.660;5.616;2022-12-01T05:14:42;102520.69;;;5.17;100.00
59103;BME280;43999;51.660;5.616;2022-12-01T05:17:10;102513.78;;;5.16;100.00
59103;BME280;43999;51.660;5.616;2022-12-01T05:19:37;102526.75;;;5.16;100.00
59103;BME280;43999;51.660;5.616;2022-12-01T05:22:23;102520.69;;;5.15;100.00
59103;BME280;43999;51.660;5.616;2022-12-01T05:25:10;102525.03;;;5.13;100.00
59103;BME280;43999;51.660;5.616;2022-12-01T05:27:37;102525.03;;;5.13;100.00
59103;BME280;43999;51.660;5.616;2022-12-01T05:30:05;102523.28;;;5.15;100.00
59103;BME280;43999;51.660;5.616;2022-12-01T05:32:33;102527.63;;;5.15;100.00
59103;BME280;43999;51.660;5.616;2022-12-01T05:35:00;102521.56;;;5.14;100.00
59103;BME280;43999;51.660;5.616;2022-12-01T05:37:27;102534.56;;;5.16;100.00
59103;BME280;43999;51.660;5.616;2022-12-01T05:40:00;102532.81;;;5.18;100.00
59103;BME280;43999;51.660;5.616;2022-12-01T05:42:28;102541.44;;;5.20;100.00
59103;BME280;43999;51.660;5.616;2022-12-01T05:44:55;102538.84;;;5.18;100.00
59103;BME280;43999;51.660;5.616;2022-12-01T05:47:22;102538.88;;;5.17;100.00
59103;BME280;43999;51.660;5.616;2022-12-01T05:49:49;102537.16;;;5.16;100.00
59103;BME280;43999;51.660;5.616;2022-12-01T05:52:17;102531.06;;;5.17;100.00
59103;BME280;43999;51.660;5.616;2022-12-01T05:54:44;102531.94;;;5.17;100.00
59103;BME280;43999;51.660;5.616;2022-12-01T05:57:11;102540.59;;;5.19;100.00
59103;BME280;43999;51.660;5.616;2022-12-01T05:59:38;102539.72;;;5.24;100.00
59103;BME280;43999;51.660;5.616;2022-12-01T06:02:06;102537.13;;;5.24;100.00
59103;BME280;43999;51.660;5.616;2022-12-01T06:04:33;102537.13;;;5.27;100.00
59103;BME280;43999;51.660;5.616;2022-12-01T06:07:00;102546.63;;;5.29;100.00
59103;BME280;43999;51.660;5.616;2022-12-01T06:09:28;102540.56;;;5.26;100.00
59103;BME280;43999;51.660;5.616;2022-12-01T06:11:55;102538.84;;;5.25;100.00
59103;BME280;43999;51.660;5.616;2022-12-01T06:14:23;102537.97;;;5.27;100.00
59103;BME280;43999;51.660;5.616;2022-12-01T06:16:50;102540.56;;;5.26;100.00
59103;BME280;43999;51.660;5.616;2022-12-01T06:19:17;102548.38;;;5.26;100.00
59103;BME280;43999;51.660;5.616;2022-12-01T06:21:45;102540.59;;;5.24;100.00
59103;BME280;43999;51.660;5.616;2022-12-01T06:24:12;102539.72;;;5.25;100.00
59103;BME280;43999;51.660;5.616;2022-12-01T06:26:39;102537.13;;;5.25;100.00
59103;BME280;43999;51.660;5.616;2022-12-01T06:29:08;102547.47;;;5.28;100.00
59103;BME280;43999;51.660;5.616;2022-12-01T06:31:39;102537.06;;;5.28;100.00
59103;BME280;43999;51.660;5.616;2022-12-01T06:34:06;102538.81;;;5.26;100.00
59103;BME280;43999;51.660;5.616;2022-12-01T06:36:34;102537.97;;;5.27;100.00
59103;BME280;43999;51.660;5.616;2022-12-01T06:39:05;102539.72;;;5.27;100.00
59103;BME280;43999;51.660;5.616;2022-12-01T06:41:37;102546.63;;;5.26;100.00
59103;BME280;43999;51.660;5.616;2022-12-01T06:44:05;102548.34;;;5.29;100.00
59103;BME280;43999;51.660;5.616;2022-12-01T06:46:32;102541.41;;;5.28;100.00
59103;BME280;43999;51.660;5.616;2022-12-01T06:48:59;102541.41;;;5.28;100.00
59103;BME280;43999;51.660;5.616;2022-12-01T06:51:26;102544.03;;;5.28;100.00
59103;BME280;43999;51.660;5.616;2022-12-01T06:53:54;102557.91;;;5.27;100.00
59103;BME280;43999;51.660;5.616;2022-12-01T06:56:29;102558.75;;;5.27;100.00
59103;BME280;43999;51.660;5.616;2022-12-01T06:58:57;102564.81;;;5.26;100.00
59103;BME280;43999;51.660;5.616;2022-12-01T07:01:24;102564.81;;;5.26;100.00
59103;BME280;43999;51.660;5.616;2022-12-01T07:03:52;102572.63;;;5.26;100.00
59103;BME280;43999;51.660;5.616;2022-12-01T07:06:20;102579.56;;;5.27;100.00
59103;BME280;43999;51.660;5.616;2022-12-01T07:08:48;102577.81;;;5.26;100.00
59103;BME280;43999;51.660;5.616;2022-12-01T07:11:15;102576.97;;;5.27;100.00
59103;BME280;43999;51.660;5.616;2022-12-01T07:13:43;102571.75;;;5.29;100.00
59103;BME280;43999;51.660;5.616;2022-12-01T07:16:15;102589.94;;;5.30;100.00
59103;BME280;43999;51.660;5.616;2022-12-01T07:18:42;102569.16;;;5.30;100.00
59103;BME280;43999;51.660;5.616;2022-12-01T07:21:13;102579.56;;;5.29;100.00
59103;BME280;43999;51.660;5.616;2022-12-01T07:23:41;102575.22;;;5.26;100.00
59103;BME280;43999;51.660;5.616;2022-12-01T07:26:15;102582.16;;;5.27;100.00
59103;BME280;43999;51.660;5.616;2022-12-01T07:28:44;102587.38;;;5.24;100.00
59103;BME280;43999;51.660;5.616;2022-12-01T07:31:17;102578.69;;;5.27;100.00
59103;BME280;43999;51.660;5.616;2022-12-01T07:33:45;102591.69;;;5.27;100.00
59103;BME280;43999;51.660;5.616;2022-12-01T07:36:13;102595.16;;;5.23;100.00
59103;BME280;43999;51.660;5.616;2022-12-01T07:38:41;102590.84;;;5.18;100.00
59103;BME280;43999;51.660;5.616;2022-12-01T07:41:11;102588.25;;;5.17;100.00
59103;BME280;43999;51.660;5.616;2022-12-01T07:43:41;102590.84;;;5.15;100.00
59103;BME280;43999;51.660;5.616;2022-12-01T07:46:18;102594.34;;;5.13;100.00
59103;BME280;43999;51.660;5.616;2022-12-01T07:48:51;102590.84;;;5.12;100.00
59103;BME280;43999;51.660;5.616;2022-12-01T07:51:21;102598.66;;;5.14;100.00
59103;BME280;43999;51.660;5.616;2022-12-01T07:53:51;102590.84;;;5.11;100.00
59103;BME280;43999;51.660;5.616;2022-12-01T07:56:21;102595.19;;;5.10;100.00
59103;BME280;43999;51.660;5.616;2022-12-01T07:58:49;102596.06;;;5.11;100.00
59103;BME280;43999;51.660;5.616;2022-12-01T08:01:20;102601.25;;;5.11;100.00
59103;BME280;43999;51.660;5.616;2022-12-01T08:03:53;102598.66;;;5.11;100.00
59103;BME280;43999;51.660;5.616;2022-12-01T08:06:24;102596.94;;;5.10;100.00
59103;BME280;43999;51.660;5.616;2022-12-01T08:08:52;102600.41;;;5.13;100.00
59103;BME280;43999;51.660;5.616;2022-12-01T08:11:22;102604.72;;;5.16;100.00
59103;BME280;43999;51.660;5.616;2022-12-01T08:13:52;102613.38;;;5.18;100.00
59103;BME280;43999;51.660;5.616;2022-12-01T08:16:22;102612.50;;;5.20;100.00
59103;BME280;43999;51.660;5.616;2022-12-01T08:18:50;102607.31;;;5.20;100.00
59103;BME280;43999;51.660;5.616;2022-12-01T08:21:20;102606.41;;;5.21;100.00
59103;BME280;43999;51.660;5.616;2022-12-01T08:23:56;102610.75;;;5.21;100.00
59103;BME280;43999;51.660;5.616;2022-12-01T08:26:25;102619.41;;;5.25;100.00
59103;BME280;43999;51.660;5.616;2022-12-01T08:28:52;102621.16;;;5.24;100.00
59103;BME280;43999;51.660;5.616;2022-12-01T08:31:24;102614.22;;;5.23;100.00
59103;BME280;43999;51.660;5.616;2022-12-01T08:33:57;102609.91;;;5.24;100.00
59103;BME280;43999;51.660;5.616;2022-12-01T08:36:24;102609.00;;;5.25;100.00
59103;BME280;43999;51.660;5.616;2022-12-01T08:38:53;102616.81;;;5.28;100.00
59103;BME280;43999;51.660;5.616;2022-12-01T08:41:22;102616.81;;;5.28;100.00
59103;BME280;43999;51.660;5.616;2022-12-01T08:43:51;102621.16;;;5.24;100.00
59103;BME280;43999;51.660;5.616;2022-12-01T08:46:31;102620.28;;;5.25;100.00
59103;BME280;43999;51.660;5.616;2022-12-01T08:49:03;102622.91;;;5.24;100.00
59103;BME280;43999;51.660;5.616;2022-12-01T08:51:31;102617.69;;;5.22;100.00
59103;BME280;43999;51.660;5.616;2022-12-01T08:53:59;102628.09;;;5.19;100.00
59103;BME280;43999;51.660;5.616;2022-12-01T08:56:37;102609.94;;;5.10;100.00
59103;BME280;43999;51.660;5.616;2022-12-01T08:59:06;102616.84;;;5.11;100.00
59103;BME280;43999;51.660;5.616;2022-12-01T09:01:36;102617.72;;;5.11;100.00
59103;BME280;43999;51.660;5.616;2022-12-01T09:04:23;102622.94;;;5.07;100.00
59103;BME280;43999;51.660;5.616;2022-12-01T09:06:54;102622.94;;;5.07;100.00
59103;BME280;43999;51.660;5.616;2022-12-01T09:09:27;102622.06;;;5.08;100.00
59103;BME280;43999;51.660;5.616;2022-12-01T09:11:56;102622.03;;;5.12;100.00
59103;BME280;43999;51.660;5.616;2022-12-01T09:14:23;102622.03;;;5.11;100.00
59103;BME280;43999;51.660;5.616;2022-12-01T09:16:50;102622.03;;;5.11;100.00
59103;BME280;43999;51.660;5.616;2022-12-01T09:19:19;102624.63;;;5.11;100.00
59103;BME280;43999;51.660;5.616;2022-12-01T09:21:51;102622.03;;;5.17;100.00
59103;BME280;43999;51.660;5.616;2022-12-01T09:24:19;102629.81;;;5.17;100.00
59103;BME280;43999;51.660;5.616;2022-12-01T09:26:46;102628.97;;;5.16;100.00
59103;BME280;43999;51.660;5.616;2022-12-01T09:29:15;102628.09;;;5.24;100.00
59103;BME280;43999;51.660;5.616;2022-12-01T09:31:43;102628.03;;;5.31;100.00
59103;BME280;43999;51.660;5.616;2022-12-01T09:34:14;102632.38;;;5.31;100.00
59103;BME280;43999;51.660;5.616;2022-12-01T09:36:45;102635.84;;;5.31;100.00
59103;BME280;43999;51.660;5.616;2022-12-01T09:39:18;102639.31;;;5.33;100.00
59103;BME280;43999;51.660;5.616;2022-12-01T09:42:06;102642.78;;;5.35;100.00
59103;BME280;43999;51.660;5.616;2022-12-01T09:44:50;102643.63;;;5.37;100.00
59103;BME280;43999;51.660;5.616;2022-12-01T09:47:40;102640.97;;;5.48;100.00
59103;BME280;43999;51.660;5.616;2022-12-01T09:50:15;102638.38;;;5.53;100.00
59103;BME280;43999;51.660;5.616;2022-12-01T09:53:05;102631.44;;;5.58;100.00
59103;BME280;43999;51.660;5.616;2022-12-01T09:55:34;102632.25;;;5.68;100.00
59103;BME280;43999;51.660;5.616;2022-12-01T09:58:11;102628.75;;;5.78;100.00
59103;BME280;43999;51.660;5.616;2022-12-01T10:00:44;102628.69;;;5.87;100.00
59103;BME280;43999;51.660;5.616;2022-12-01T10:03:19;102611.31;;;5.91;100.00
59103;BME280;43999;51.660;5.616;2022-12-01T10:06:04;102619.09;;;6.02;100.00
59103;BME280;43999;51.660;5.616;2022-12-01T10:09:22;102616.41;;;6.14;100.00
59103;BME280;43999;51.660;5.616;2022-12-01T10:11:57;102617.19;;;6.24;100.00
59103;BME280;43999;51.660;5.616;2022-12-01T10:14:35;102611.97;;;6.28;100.00
59103;BME280;43999;51.660;5.616;2022-12-01T10:17:30;102618.03;;;6.34;100.00
59103;BME280;43999;51.660;5.616;2022-12-01T10:20:45;102608.41;;;6.42;100.00
59103;BME280;43999;51.660;5.616;2022-12-01T10:23:42;102605.72;;;6.50;100.00
59103;BME280;43999;51.660;5.616;2022-12-01T10:30:27;102606.44;;;6.67;100.00
59103;BME280;43999;51.660;5.616;2022-12-01T10:33:01;102606.41;;;6.69;100.00
59103;BME280;43999;51.660;5.616;2022-12-01T10:35:44;102600.34;;;6.70;100.00
59103;BME280;43999;51.660;5.616;2022-12-01T10:38:33;102587.31;;;6.71;100.00
59103;BME280;43999;51.660;5.616;2022-12-01T10:41:05;102594.19;;;6.77;100.00
59103;BME280;43999;51.660;5.616;2022-12-01T10:43:43;102583.69;;;6.83;100.00
59103;BME280;43999;51.660;5.616;2022-12-01T10:46:24;102584.53;;;6.88;100.00
59103;BME280;43999;51.660;5.616;2022-12-01T10:49:10;102592.25;;;6.97;100.00
59103;BME280;43999;51.660;5.616;2022-12-01T10:51:56;102588.66;;;7.08;100.00
59103;BME280;43999;51.660;5.616;2022-12-01T10:54:39;102585.94;;;7.15;100.00
59103;BME280;43999;51.660;5.616;2022-12-01T10:57:14;102586.84;;;7.16;100.00
59103;BME280;43999;51.660;5.616;2022-12-01T11:02:29;102591.25;;;7.08;100.00
59103;BME280;43999;51.660;5.616;2022-12-01T11:05:04;102581.72;;;7.08;100.00
59103;BME280;43999;51.660;5.616;2022-12-01T11:07:47;102577.38;;;7.06;100.00
59103;BME280;43999;51.660;5.616;2022-12-01T11:10:25;102578.28;;;7.03;100.00
59103;BME280;43999;51.660;5.616;2022-12-01T11:13:28;102580.91;;;7.02;100.00
59103;BME280;43999;51.660;5.616;2022-12-01T11:16:03;102576.59;;;6.99;100.00
59103;BME280;43999;51.660;5.616;2022-12-01T11:18:37;102579.19;;;7.00;100.00
59103;BME280;43999;51.660;5.616;2022-12-01T11:21:25;102580.06;;;6.98;100.00
59103;BME280;43999;51.660;5.616;2022-12-01T11:23:55;102578.31;;;7.00;100.00
59103;BME280;43999;51.660;5.616;2022-12-01T11:26:30;102580.94;;;6.98;100.00
59103;BME280;43999;51.660;5.616;2022-12-01T11:29:06;102579.22;;;6.97;100.00
59103;BME280;43999;51.660;5.616;2022-12-01T11:31:54;102577.44;;;7.01;100.00
59103;BME280;43999;51.660;5.616;2022-12-01T11:34:32;102570.50;;;6.98;100.00
59103;BME280;43999;51.660;5.616;2022-12-01T11:37:08;102565.22;;;7.03;100.00
59103;BME280;43999;51.660;5.616;2022-12-01T11:39:44;102567.81;;;7.05;100.00
59103;BME280;43999;51.660;5.616;2022-12-01T11:42:29;102562.69;;;6.97;100.00
59103;BME280;43999;51.660;5.616;2022-12-01T11:53:45;102554.94;;;6.91;100.00
59103;BME280;43999;51.660;5.616;2022-12-01T11:56:22;102555.78;;;6.96;100.00
59103;BME280;43999;51.660;5.616;2022-12-01T11:59:11;102560.16;;;6.92;100.00
59103;BME280;43999;51.660;5.616;2022-12-01T12:02:05;102552.34;;;6.89;100.00
59103;BME280;43999;51.660;5.616;2022-12-01T12:05:32;102548.88;;;6.90;100.00
59103;BME280;43999;51.660;5.616;2022-12-01T12:15:34;102546.31;;;6.87;100.00
59103;BME280;43999;51.660;5.616;2022-12-01T12:18:48;102546.31;;;6.86;100.00
59103;BME280;43999;51.660;5.616;2022-12-01T12:21:43;102543.75;;;6.82;100.00
59103;BME280;43999;51.660;5.616;2022-12-01T12:25:09;102544.59;;;6.83;100.00
59103;BME280;43999;51.660;5.616;2022-12-01T12:41:00;102535.94;;;6.82;100.00
59103;BME280;43999;51.660;5.616;2022-12-01T12:44:16;102532.47;;;6.84;100.00
59103;BME280;43999;51.660;5.616;2022-12-01T12:47:16;102525.47;;;6.87;100.00
59103;BME280;43999;51.660;5.616;2022-12-01T12:53:20;102524.56;;;6.91;100.00
59103;BME280;43999;51.660;5.616;2022-12-01T12:55:58;102521.03;;;6.94;100.00
59103;BME280;43999;51.660;5.616;2022-12-01T12:58:38;102525.31;;;7.01;100.00
59103;BME280;43999;51.660;5.616;2022-12-01T13:01:31;102511.38;;;7.05;100.00
59103;BME280;43999;51.660;5.616;2022-12-01T13:04:10;102515.63;;;7.11;100.00
59103;BME280;43999;51.660;5.616;2022-12-01T13:07:16;102517.31;;;7.15;100.00
59103;BME280;43999;51.660;5.616;2022-12-01T13:09:53;102519.06;;;7.16;100.00
59103;BME280;43999;51.660;5.616;2022-12-01T13:12:35;102509.16;;;7.41;100.00
59103;BME280;43999;51.660;5.616;2022-12-01T13:15:17;102510.66;;;7.59;100.00
59103;BME280;43999;51.660;5.616;2022-12-01T13:18:13;102506.19;;;7.66;100.00
59103;BME280;43999;51.660;5.616;2022-12-01T13:20:56;102506.88;;;7.77;100.00
59103;BME280;43999;51.660;5.616;2022-12-01T13:23:24;102499.06;;;7.77;100.00
59103;BME280;43999;51.660;5.616;2022-12-01T13:25:56;102492.97;;;7.78;100.00
59103;BME280;43999;51.660;5.616;2022-12-01T13:31:45;102482.63;;;7.70;100.00
59103;BME280;43999;51.660;5.616;2022-12-01T13:37:11;102492.34;;;7.62;100.00
59103;BME280;43999;51.660;5.616;2022-12-01T13:39:43;102490.66;;;7.57;100.00
59103;BME280;43999;51.660;5.616;2022-12-01T13:42:23;102489.00;;;7.51;100.00
59103;BME280;43999;51.660;5.616;2022-12-01T13:44:59;102488.97;;;7.52;100.00
59103;BME280;43999;51.660;5.616;2022-12-01T13:47:54;102477.75;;;7.49;100.00
59103;BME280;43999;51.660;5.616;2022-12-01T13:50:57;102486.47;;;7.46;100.00
59103;BME280;43999;51.660;5.616;2022-12-01T13:53:37;102472.72;;;7.35;100.00
59103;BME280;43999;51.660;5.616;2022-12-01T13:56:27;102477.16;;;7.30;100.00
59103;BME280;43999;51.660;5.616;2022-12-01T14:00:00;102482.50;;;7.21;100.00
59103;BME280;43999;51.660;5.616;2022-12-01T14:02:38;102479.13;;;7.11;100.00
59103;BME280;43999;51.660;5.616;2022-12-01T14:07:52;102488.03;;;6.96;100.00
59103;BME280;43999;51.660;5.616;2022-12-01T14:10:28;102483.72;;;6.92;100.00
59103;BME280;43999;51.660;5.616;2022-12-01T14:13:03;102488.06;;;6.91;100.00
59103;BME280;43999;51.660;5.616;2022-12-01T14:15:37;102487.25;;;6.86;100.00
59103;BME280;43999;51.660;5.616;2022-12-01T14:18:47;102481.22;;;6.82;100.00
59103;BME280;43999;51.660;5.616;2022-12-01T14:21:45;102492.56;;;6.77;100.00
59103;BME280;43999;51.660;5.616;2022-12-01T14:24:26;102487.38;;;6.74;100.00
59103;BME280;43999;51.660;5.616;2022-12-01T14:27:02;102489.13;;;6.73;100.00
59103;BME280;43999;51.660;5.616;2022-12-01T14:29:35;102492.66;;;6.68;100.00
59103;BME280;43999;51.660;5.616;2022-12-01T14:34:36;102497.94;;;6.61;100.00
59103;BME280;43999;51.660;5.616;2022-12-01T14:37:15;102502.34;;;6.56;100.00
59103;BME280;43999;51.660;5.616;2022-12-01T14:40:06;102496.28;;;6.57;100.00
59103;BME280;43999;51.660;5.616;2022-12-01T14:42:42;102502.38;;;6.55;100.00
59103;BME280;43999;51.660;5.616;2022-12-01T14:45:40;102501.56;;;6.50;100.00
59103;BME280;43999;51.660;5.616;2022-12-01T14:48:20;102501.56;;;6.50;100.00
59103;BME280;43999;51.660;5.616;2022-12-01T14:51:21;102506.75;;;6.50;100.00